METAR Data
IDs: Format: Raw Decoded Include TAF

Data at: 1527 UTC 27 Nov 2021

EDDK 271520Z 21006KT 070V240 9999 FEW040 02/M02 Q0992 NOSIG